Custer Park, Illinois
Current Conditions -  °F | °C
As of 1:15 PM on Friday 28 Nov 2014 (Local Time) from KJOT Reporting Station
Overcast Overcast  
Wind Chill: 21°   Ceiling: 12000
Heat Index: 30°   Visibility: 10mi
Dew Point: 23°   Wind: 12mph
Humidity: 73%   Direction: 150°SSE
Pressure: 30.06"   Gusts: 20mph
Location:  41.3199°N, 88.0518°W
Report Text: KJOT 281915Z AUTO 15010G17KT 120V180 10SM SCT022 OVC120 M01/M05 A3006 RMK AO2 T10091051
Loading
Personal Weather Stations






























Interactive Weather Map New forecast layout! Learn more

10-Day Weather Forecast

Advertisements
Track Severe Weather on mobile